sensor_id;sensor_type;location;lat;lon;timestamp;pressure;altitude;pressure_sealevel;temperature;humidity
16664;BME280;8445;51.270;9.434;2023-03-03T00:00:58;100085.63;;;0.82;66.92
16664;BME280;8445;51.270;9.434;2023-03-03T00:03:24;100083.84;;;0.84;65.92
16664;BME280;8445;51.270;9.434;2023-03-03T00:05:51;100083.16;;;0.77;66.78
16664;BME280;8445;51.270;9.434;2023-03-03T00:08:18;100083.25;;;0.72;67.50
16664;BME280;8445;51.270;9.434;2023-03-03T00:10:44;100079.88;;;0.69;68.14
16664;BME280;8445;51.270;9.434;2023-03-03T00:13:18;100091.19;;;0.66;70.45
16664;BME280;8445;51.270;9.434;2023-03-03T00:15:43;100075.56;;;0.68;66.95
16664;BME280;8445;51.270;9.434;2023-03-03T00:18:17;100083.31;;;0.71;66.72
16664;BME280;8445;51.270;9.434;2023-03-03T00:20:54;100092.91;;;0.67;67.71
16664;BME280;8445;51.270;9.434;2023-03-03T00:23:39;100101.63;;;0.66;70.12
16664;BME280;8445;51.270;9.434;2023-03-03T00:26:20;100106.19;;;0.56;69.83
16664;BME280;8445;51.270;9.434;2023-03-03T00:28:48;100096.72;;;0.54;69.08
16664;BME280;8445;51.270;9.434;2023-03-03T00:31:20;100095.16;;;0.47;69.77
16664;BME280;8445;51.270;9.434;2023-03-03T00:33:51;100102.13;;;0.44;69.13
16664;BME280;8445;51.270;9.434;2023-03-03T00:36:36;100103.03;;;0.43;68.70
16664;BME280;8445;51.270;9.434;2023-03-03T00:39:26;100095.28;;;0.40;69.75
16664;BME280;8445;51.270;9.434;2023-03-03T00:41:53;100107.47;;;0.38;69.75
16664;BME280;8445;51.270;9.434;2023-03-03T00:47:38;100104.19;;;0.30;71.94
16664;BME280;8445;51.270;9.434;2023-03-03T00:50:16;100102.47;;;0.29;70.37
16664;BME280;8445;51.270;9.434;2023-03-03T00:52:55;100092.13;;;0.26;70.99
16664;BME280;8445;51.270;9.434;2023-03-03T00:55:23;100096.50;;;0.25;69.80
16664;BME280;8445;51.270;9.434;2023-03-03T00:57:48;100092.94;;;0.28;69.33
16664;BME280;8445;51.270;9.434;2023-03-03T01:00:17;100083.22;;;0.36;67.33
16664;BME280;8445;51.270;9.434;2023-03-03T01:02:43;100084.13;;;0.34;68.63
16664;BME280;8445;51.270;9.434;2023-03-03T01:05:15;100086.84;;;0.29;71.23
16664;BME280;8445;51.270;9.434;2023-03-03T01:07:41;100085.19;;;0.25;70.92
16664;BME280;8445;51.270;9.434;2023-03-03T01:10:08;100085.25;;;0.23;70.85
16664;BME280;8445;51.270;9.434;2023-03-03T01:12:33;100085.28;;;0.22;71.52
16664;BME280;8445;51.270;9.434;2023-03-03T01:14:59;100087.84;;;0.23;70.52
16664;BME280;8445;51.270;9.434;2023-03-03T01:17:24;100099.16;;;0.21;71.25
16664;BME280;8445;51.270;9.434;2023-03-03T01:19:50;100087.94;;;0.19;71.25
16664;BME280;8445;51.270;9.434;2023-03-03T01:22:15;100087.81;;;0.25;69.39
16664;BME280;8445;51.270;9.434;2023-03-03T01:24:40;100090.47;;;0.22;70.30
16664;BME280;8445;51.270;9.434;2023-03-03T01:27:06;100092.19;;;0.23;69.38
16664;BME280;8445;51.270;9.434;2023-03-03T01:29:31;100089.72;;;0.17;70.71
16664;BME280;8445;51.270;9.434;2023-03-03T01:31:57;100071.38;;;0.23;69.19
16664;BME280;8445;51.270;9.434;2023-03-03T01:34:23;100075.59;;;0.28;68.76
16664;BME280;8445;51.270;9.434;2023-03-03T01:36:48;100075.72;;;0.22;70.68
16664;BME280;8445;51.270;9.434;2023-03-03T01:39:14;100080.81;;;0.28;68.81
16664;BME280;8445;51.270;9.434;2023-03-03T01:41:39;100088.63;;;0.27;69.41
16664;BME280;8445;51.270;9.434;2023-03-03T01:44:08;100098.16;;;0.28;69.66
16664;BME280;8445;51.270;9.434;2023-03-03T01:49:33;100079.94;;;0.28;69.80
16664;BME280;8445;51.270;9.434;2023-03-03T01:52:02;100087.81;;;0.25;70.13
16664;BME280;8445;51.270;9.434;2023-03-03T01:54:37;100096.41;;;0.28;70.56
16664;BME280;8445;51.270;9.434;2023-03-03T01:57:05;100087.81;;;0.25;70.21
16664;BME280;8445;51.270;9.434;2023-03-03T01:59:35;100088.63;;;0.27;69.94
16664;BME280;8445;51.270;9.434;2023-03-03T02:02:04;100089.50;;;0.27;70.21
16664;BME280;8445;51.270;9.434;2023-03-03T02:04:33;100072.94;;;0.30;69.51
16664;BME280;8445;51.270;9.434;2023-03-03T02:07:02;100086.84;;;0.29;69.04
16664;BME280;8445;51.270;9.434;2023-03-03T02:09:43;100078.28;;;0.25;69.85
16664;BME280;8445;51.270;9.434;2023-03-03T02:12:15;100080.00;;;0.25;70.93
16664;BME280;8445;51.270;9.434;2023-03-03T02:14:41;100076.50;;;0.26;70.13
16664;BME280;8445;51.270;9.434;2023-03-03T02:17:07;100083.56;;;0.21;72.07
16664;BME280;8445;51.270;9.434;2023-03-03T02:22:08;100068.00;;;0.19;70.39
16664;BME280;8445;51.270;9.434;2023-03-03T02:24:42;100074.03;;;0.20;70.81
16664;BME280;8445;51.270;9.434;2023-03-03T02:27:09;100071.44;;;0.20;69.75
16664;BME280;8445;51.270;9.434;2023-03-03T02:29:36;100078.28;;;0.24;69.64
16664;BME280;8445;51.270;9.434;2023-03-03T02:32:03;100078.34;;;0.21;70.07
16664;BME280;8445;51.270;9.434;2023-03-03T02:34:29;100074.03;;;0.20;71.42
16664;BME280;8445;51.270;9.434;2023-03-03T02:36:54;100066.97;;;0.26;69.17
16664;BME280;8445;51.270;9.434;2023-03-03T02:39:23;100070.34;;;0.30;69.30
16664;BME280;8445;51.270;9.434;2023-03-03T02:44:41;100081.66;;;0.29;70.28
16664;BME280;8445;51.270;9.434;2023-03-03T02:47:07;100087.75;;;0.28;70.82
16664;BME280;8445;51.270;9.434;2023-03-03T02:49:34;100079.88;;;0.29;69.80
16664;BME280;8445;51.270;9.434;2023-03-03T02:52:02;100081.72;;;0.26;71.43
16664;BME280;8445;51.270;9.434;2023-03-03T02:54:29;100079.25;;;0.20;72.46
16664;BME280;8445;51.270;9.434;2023-03-03T02:56:57;100081.81;;;0.21;71.87
16664;BME280;8445;51.270;9.434;2023-03-03T02:59:22;100081.78;;;0.23;71.72
16664;BME280;8445;51.270;9.434;2023-03-03T03:01:49;100077.38;;;0.26;70.91
16664;BME280;8445;51.270;9.434;2023-03-03T03:04:22;100080.94;;;0.21;72.31
16664;BME280;8445;51.270;9.434;2023-03-03T03:06:50;100074.03;;;0.20;73.34
16664;BME280;8445;51.270;9.434;2023-03-03T03:09:17;100081.78;;;0.23;71.48
16664;BME280;8445;51.270;9.434;2023-03-03T03:11:43;100076.72;;;0.17;72.74
16664;BME280;8445;51.270;9.434;2023-03-03T03:14:11;100090.59;;;0.16;72.47
16664;BME280;8445;51.270;9.434;2023-03-03T03:16:38;100088.06;;;0.14;73.29
16664;BME280;8445;51.270;9.434;2023-03-03T03:19:04;100086.22;;;0.18;72.62
16664;BME280;8445;51.270;9.434;2023-03-03T03:21:30;100090.66;;;0.12;74.32
16664;BME280;8445;51.270;9.434;2023-03-03T03:23:57;100099.34;;;0.13;73.86
16664;BME280;8445;51.270;9.434;2023-03-03T03:26:23;100106.22;;;0.16;73.25
16664;BME280;8445;51.270;9.434;2023-03-03T03:28:49;100099.34;;;0.11;74.07
16664;BME280;8445;51.270;9.434;2023-03-03T03:31:17;100107.97;;;0.15;73.01
16664;BME280;8445;51.270;9.434;2023-03-03T03:33:43;100095.81;;;0.16;72.47
16664;BME280;8445;51.270;9.434;2023-03-03T03:36:09;100101.00;;;0.16;73.13
16664;BME280;8445;51.270;9.434;2023-03-03T03:38:35;100095.81;;;0.16;73.54
16664;BME280;8445;51.270;9.434;2023-03-03T03:41:02;100107.16;;;0.11;74.07
16664;BME280;8445;51.270;9.434;2023-03-03T03:43:28;100104.50;;;0.14;73.01
16664;BME280;8445;51.270;9.434;2023-03-03T03:45:54;100101.06;;;0.12;74.47
16664;BME280;8445;51.270;9.434;2023-03-03T03:48:20;100099.34;;;0.11;73.89
16664;BME280;8445;51.270;9.434;2023-03-03T03:50:48;100100.13;;;0.17;72.37
16664;BME280;8445;51.270;9.434;2023-03-03T03:53:14;100093.19;;;0.17;72.24
16664;BME280;8445;51.270;9.434;2023-03-03T03:55:39;100090.59;;;0.17;72.25
16664;BME280;8445;51.270;9.434;2023-03-03T03:58:05;100088.00;;;0.16;72.34
16664;BME280;8445;51.270;9.434;2023-03-03T04:00:31;100091.56;;;0.11;72.18
16664;BME280;8445;51.270;9.434;2023-03-03T04:02:58;100092.44;;;0.10;73.68
16664;BME280;8445;51.270;9.434;2023-03-03T04:05:24;100113.38;;;0.04;74.31
16664;BME280;8445;51.270;9.434;2023-03-03T04:07:50;100109.91;;;0.05;73.05
16664;BME280;8445;51.270;9.434;2023-03-03T04:10:16;100103.03;;;0.01;73.97
16664;BME280;8445;51.270;9.434;2023-03-03T04:12:43;100105.63;;;0.03;73.18
16664;BME280;8445;51.270;9.434;2023-03-03T04:15:12;100112.66;;;-0.03;74.39
16664;BME280;8445;51.270;9.434;2023-03-03T04:17:39;100108.41;;;-0.07;74.72
16664;BME280;8445;51.270;9.434;2023-03-03T04:20:06;100122.16;;;0.00;72.37
16664;BME280;8445;51.270;9.434;2023-03-03T04:22:32;100118.88;;;-0.10;75.16
16664;BME280;8445;51.270;9.434;2023-03-03T04:25:01;100113.66;;;-0.08;72.63
16664;BME280;8445;51.270;9.434;2023-03-03T04:27:34;100117.22;;;-0.12;74.17
16664;BME280;8445;51.270;9.434;2023-03-03T04:30:00;100118.22;;;-0.20;73.91
16664;BME280;8445;51.270;9.434;2023-03-03T04:32:27;100122.53;;;-0.19;74.52
16664;BME280;8445;51.270;9.434;2023-03-03T04:34:53;100117.38;;;-0.22;74.31
16664;BME280;8445;51.270;9.434;2023-03-03T04:37:19;100115.72;;;-0.26;74.82
16664;BME280;8445;51.270;9.434;2023-03-03T04:39:44;100121.91;;;-0.32;75.37
16664;BME280;8445;51.270;9.434;2023-03-03T04:42:11;100112.47;;;-0.37;75.80
16664;BME280;8445;51.270;9.434;2023-03-03T04:44:36;100125.53;;;-0.40;75.79
16664;BME280;8445;51.270;9.434;2023-03-03T04:47:02;100114.19;;;-0.36;74.12
16664;BME280;8445;51.270;9.434;2023-03-03T04:49:29;100112.41;;;-0.34;73.01
16664;BME280;8445;51.270;9.434;2023-03-03T04:51:56;100113.28;;;-0.34;72.09
16664;BME280;8445;51.270;9.434;2023-03-03T04:54:22;100121.94;;;-0.33;72.79
16664;BME280;8445;51.270;9.434;2023-03-03T04:56:48;100120.22;;;-0.34;72.97
16664;BME280;8445;51.270;9.434;2023-03-03T04:59:14;100121.09;;;-0.35;73.35
16664;BME280;8445;51.270;9.434;2023-03-03T05:01:39;100129.78;;;-0.36;74.77
16664;BME280;8445;51.270;9.434;2023-03-03T05:04:06;100125.47;;;-0.37;74.58
16664;BME280;8445;51.270;9.434;2023-03-03T05:06:32;100122.94;;;-0.40;73.64
16664;BME280;8445;51.270;9.434;2023-03-03T05:08:57;100112.63;;;-0.45;74.01
16664;BME280;8445;51.270;9.434;2023-03-03T05:11:22;100111.66;;;-0.39;72.79
16664;BME280;8445;51.270;9.434;2023-03-03T05:13:48;100114.28;;;-0.41;72.90
16664;BME280;8445;51.270;9.434;2023-03-03T05:16:13;100115.97;;;-0.38;73.29
16664;BME280;8445;51.270;9.434;2023-03-03T05:18:39;100117.78;;;-0.43;74.99
16664;BME280;8445;51.270;9.434;2023-03-03T05:21:05;100128.16;;;-0.42;74.78
16664;BME280;8445;51.270;9.434;2023-03-03T05:23:30;100140.34;;;-0.44;74.89
16664;BME280;8445;51.270;9.434;2023-03-03T05:25:56;100136.88;;;-0.45;74.24
16664;BME280;8445;51.270;9.434;2023-03-03T05:28:22;100143.00;;;-0.47;74.32
16664;BME280;8445;51.270;9.434;2023-03-03T05:30:47;100135.16;;;-0.46;73.35
16664;BME280;8445;51.270;9.434;2023-03-03T05:33:15;100128.28;;;-0.48;75.53
16664;BME280;8445;51.270;9.434;2023-03-03T05:35:40;100138.69;;;-0.50;75.57
16664;BME280;8445;51.270;9.434;2023-03-03T05:38:06;100140.47;;;-0.52;74.65
16664;BME280;8445;51.270;9.434;2023-03-03T05:40:32;100146.53;;;-0.53;75.06
16664;BME280;8445;51.270;9.434;2023-03-03T05:42:57;100140.59;;;-0.60;75.39
16664;BME280;8445;51.270;9.434;2023-03-03T05:45:23;100147.56;;;-0.60;74.55
16664;BME280;8445;51.270;9.434;2023-03-03T05:47:52;100148.41;;;-0.60;74.39
16664;BME280;8445;51.270;9.434;2023-03-03T05:50:20;100161.59;;;-0.70;78.03
16664;BME280;8445;51.270;9.434;2023-03-03T05:52:50;100149.38;;;-0.67;75.45
16664;BME280;8445;51.270;9.434;2023-03-03T05:55:16;100154.69;;;-0.71;76.01
16664;BME280;8445;51.270;9.434;2023-03-03T05:57:42;100143.34;;;-0.67;74.54
16664;BME280;8445;51.270;9.434;2023-03-03T06:00:08;100158.84;;;-0.61;74.16
16664;BME280;8445;51.270;9.434;2023-03-03T06:02:40;100144.22;;;-0.68;75.33
16664;BME280;8445;51.270;9.434;2023-03-03T06:05:06;100150.38;;;-0.72;76.91
16664;BME280;8445;51.270;9.434;2023-03-03T06:07:32;100160.72;;;-0.69;76.11
16664;BME280;8445;51.270;9.434;2023-03-03T06:09:58;100144.22;;;-0.68;74.74
16664;BME280;8445;51.270;9.434;2023-03-03T06:12:23;100148.59;;;-0.72;75.23
16664;BME280;8445;51.270;9.434;2023-03-03T06:14:49;100151.94;;;-0.64;73.60
16664;BME280;8445;51.270;9.434;2023-03-03T06:17:14;100160.59;;;-0.63;74.36
16664;BME280;8445;51.270;9.434;2023-03-03T06:19:40;100163.25;;;-0.66;74.93
16664;BME280;8445;51.270;9.434;2023-03-03T06:22:06;100161.50;;;-0.66;74.55
16664;BME280;8445;51.270;9.434;2023-03-03T06:24:32;100160.72;;;-0.69;75.69
16664;BME280;8445;51.270;9.434;2023-03-03T06:27:00;100165.03;;;-0.70;76.18
16664;BME280;8445;51.270;9.434;2023-03-03T06:29:27;100171.16;;;-0.74;77.19
16664;BME280;8445;51.270;9.434;2023-03-03T06:31:52;100175.47;;;-0.71;76.50
16664;BME280;8445;51.270;9.434;2023-03-03T06:34:18;100188.41;;;-0.70;76.52
16664;BME280;8445;51.270;9.434;2023-03-03T06:36:43;100181.53;;;-0.72;77.13
16664;BME280;8445;51.270;9.434;2023-03-03T06:39:09;100188.38;;;-0.67;76.00
16664;BME280;8445;51.270;9.434;2023-03-03T06:41:35;100177.03;;;-0.61;75.59
16664;BME280;8445;51.270;9.434;2023-03-03T06:44:00;100182.91;;;-0.51;74.58
16664;BME280;8445;51.270;9.434;2023-03-03T06:46:26;100189.78;;;-0.49;75.26
16664;BME280;8445;51.270;9.434;2023-03-03T06:48:52;100187.97;;;-0.43;75.15
16664;BME280;8445;51.270;9.434;2023-03-03T06:51:29;100186.25;;;-0.45;75.08
16664;BME280;8445;51.270;9.434;2023-03-03T06:53:57;100195.81;;;-0.47;76.26
16664;BME280;8445;51.270;9.434;2023-03-03T06:56:24;100188.81;;;-0.41;74.88
16664;BME280;8445;51.270;9.434;2023-03-03T06:58:54;100187.97;;;-0.42;75.21
16664;BME280;8445;51.270;9.434;2023-03-03T07:01:20;100193.91;;;-0.35;74.59
16664;BME280;8445;51.270;9.434;2023-03-03T07:03:45;100196.50;;;-0.35;75.19
16664;BME280;8445;51.270;9.434;2023-03-03T07:06:23;100206.06;;;-0.36;77.24
16664;BME280;8445;51.270;9.434;2023-03-03T07:08:50;100192.19;;;-0.36;75.51
16664;BME280;8445;51.270;9.434;2023-03-03T07:11:18;100207.72;;;-0.33;75.04
16664;BME280;8445;51.270;9.434;2023-03-03T07:13:50;100212.91;;;-0.33;75.39
16664;BME280;8445;51.270;9.434;2023-03-03T07:16:17;100202.47;;;-0.30;75.32
16664;BME280;8445;51.270;9.434;2023-03-03T07:18:55;100203.25;;;-0.26;76.12
16664;BME280;8445;51.270;9.434;2023-03-03T07:21:30;100211.00;;;-0.22;74.75
16664;BME280;8445;51.270;9.434;2023-03-03T07:23:57;100216.16;;;-0.19;74.54
16664;BME280;8445;51.270;9.434;2023-03-03T07:26:28;100209.97;;;-0.13;75.60
16664;BME280;8445;51.270;9.434;2023-03-03T07:28:59;100206.41;;;-0.09;75.12
16664;BME280;8445;51.270;9.434;2023-03-03T07:31:33;100212.50;;;-0.08;75.15
16664;BME280;8445;51.270;9.434;2023-03-03T07:34:01;100207.97;;;0.02;73.97
16664;BME280;8445;51.270;9.434;2023-03-03T07:36:36;100214.66;;;0.13;73.97
16664;BME280;8445;51.270;9.434;2023-03-03T07:41:46;100225.53;;;0.34;72.98
16664;BME280;8445;51.270;9.434;2023-03-03T07:44:21;100219.34;;;0.40;73.62
16664;BME280;8445;51.270;9.434;2023-03-03T07:46:49;100229.69;;;0.43;73.49
16664;BME280;8445;51.270;9.434;2023-03-03T07:49:34;100228.97;;;0.36;74.94
16664;BME280;8445;51.270;9.434;2023-03-03T07:52:00;100229.94;;;0.31;74.90
16664;BME280;8445;51.270;9.434;2023-03-03T07:54:37;100240.34;;;0.32;74.78
16664;BME280;8445;51.270;9.434;2023-03-03T07:59:40;100230.03;;;0.26;75.00
16664;BME280;8445;51.270;9.434;2023-03-03T08:02:32;100232.47;;;0.35;75.14
16664;BME280;8445;51.270;9.434;2023-03-03T08:04:59;100241.00;;;0.42;74.34
16664;BME280;8445;51.270;9.434;2023-03-03T08:07:24;100239.94;;;0.52;74.04
16664;BME280;8445;51.270;9.434;2023-03-03T08:12:41;100258.06;;;0.57;74.53
16664;BME280;8445;51.270;9.434;2023-03-03T08:15:20;100248.44;;;0.59;75.05
16664;BME280;8445;51.270;9.434;2023-03-03T08:17:48;100253.47;;;0.68;74.04
16664;BME280;8445;51.270;9.434;2023-03-03T08:20:45;100262.22;;;0.66;74.82
16664;BME280;8445;51.270;9.434;2023-03-03T08:23:12;100266.56;;;0.65;75.05
16664;BME280;8445;51.270;9.434;2023-03-03T08:25:38;100257.84;;;0.66;74.99
16664;BME280;8445;51.270;9.434;2023-03-03T08:28:07;100259.50;;;0.70;75.19
16664;BME280;8445;51.270;9.434;2023-03-03T08:30:33;100261.16;;;0.74;74.30
16664;BME280;8445;51.270;9.434;2023-03-03T08:32:58;100267.88;;;0.85;74.18
16664;BME280;8445;51.270;9.434;2023-03-03T08:35:24;100265.91;;;0.96;73.98
16664;BME280;8445;51.270;9.434;2023-03-03T08:37:50;100270.88;;;1.07;73.63
16664;BME280;8445;51.270;9.434;2023-03-03T08:40:16;100270.59;;;1.20;73.55
16664;BME280;8445;51.270;9.434;2023-03-03T08:42:41;100275.56;;;1.30;73.22
16664;BME280;8445;51.270;9.434;2023-03-03T08:45:06;100274.44;;;1.42;72.67
16664;BME280;8445;51.270;9.434;2023-03-03T08:47:32;100277.53;;;1.58;73.37
16664;BME280;8445;51.270;9.434;2023-03-03T08:49:57;100270.44;;;1.63;73.21
16664;BME280;8445;51.270;9.434;2023-03-03T08:52:23;100278.28;;;1.63;73.01
16664;BME280;8445;51.270;9.434;2023-03-03T08:54:48;100271.28;;;1.66;73.33
16664;BME280;8445;51.270;9.434;2023-03-03T08:57:14;100258.91;;;1.72;73.39
16664;BME280;8445;51.270;9.434;2023-03-03T08:59:40;100271.44;;;1.94;73.42
16664;BME280;8445;51.270;9.434;2023-03-03T09:02:06;100273.88;;;2.00;73.19
16664;BME280;8445;51.270;9.434;2023-03-03T09:04:31;100270.31;;;2.03;72.96
16664;BME280;8445;51.270;9.434;2023-03-03T09:06:57;100270.25;;;2.06;73.20
16664;BME280;8445;51.270;9.434;2023-03-03T09:09:23;100270.25;;;2.06;73.08
16664;BME280;8445;51.270;9.434;2023-03-03T09:11:48;100281.44;;;2.10;72.88
16664;BME280;8445;51.270;9.434;2023-03-03T09:14:17;100271.06;;;2.06;73.04
16664;BME280;8445;51.270;9.434;2023-03-03T09:16:50;100287.31;;;2.18;73.45
16664;BME280;8445;51.270;9.434;2023-03-03T09:19:21;100291.72;;;2.16;72.60
16664;BME280;8445;51.270;9.434;2023-03-03T09:21:50;100280.38;;;2.17;72.44
16664;BME280;8445;51.270;9.434;2023-03-03T09:24:25;100280.28;;;2.21;72.66
16664;BME280;8445;51.270;9.434;2023-03-03T09:26:50;100287.16;;;2.24;72.58
16664;BME280;8445;51.270;9.434;2023-03-03T09:29:35;100286.97;;;2.32;73.02
16664;BME280;8445;51.270;9.434;2023-03-03T09:32:23;100280.94;;;2.61;72.85
16664;BME280;8445;51.270;9.434;2023-03-03T09:34:51;100278.13;;;2.97;72.38
16664;BME280;8445;51.270;9.434;2023-03-03T09:37:18;100285.88;;;3.01;71.77
16664;BME280;8445;51.270;9.434;2023-03-03T09:39:49;100288.16;;;3.11;72.26
16664;BME280;8445;51.270;9.434;2023-03-03T09:42:19;100280.13;;;3.18;72.04
16664;BME280;8445;51.270;9.434;2023-03-03T09:50:35;100293.88;;;3.53;71.86
16664;BME280;8445;51.270;9.434;2023-03-03T09:53:24;100291.63;;;3.67;70.80
16664;BME280;8445;51.270;9.434;2023-03-03T09:56:15;100297.34;;;3.80;71.98
16664;BME280;8445;51.270;9.434;2023-03-03T10:02:11;100298.81;;;3.88;71.97
16664;BME280;8445;51.270;9.434;2023-03-03T10:05:04;100303.22;;;3.87;71.13
16664;BME280;8445;51.270;9.434;2023-03-03T10:08:08;100298.22;;;4.06;71.65
16664;BME280;8445;51.270;9.434;2023-03-03T10:10:49;100295.31;;;4.14;71.05
16664;BME280;8445;51.270;9.434;2023-03-03T10:13:30;100300.72;;;4.09;70.34
16664;BME280;8445;51.270;9.434;2023-03-03T10:16:31;100297.69;;;3.96;71.00
16664;BME280;8445;51.270;9.434;2023-03-03T10:21:57;100301.84;;;4.02;71.51
16664;BME280;8445;51.270;9.434;2023-03-03T10:24:34;100293.69;;;4.11;71.65
16664;BME280;8445;51.270;9.434;2023-03-03T10:27:38;100296.63;;;4.27;71.49
16664;BME280;8445;51.270;9.434;2023-03-03T10:33:18;100290.84;;;4.43;70.36
16664;BME280;8445;51.270;9.434;2023-03-03T11:00:34;100307.69;;;4.36;69.56
16664;BME280;8445;51.270;9.434;2023-03-03T11:15:22;100304.75;;;4.45;69.65
16664;BME280;8445;51.270;9.434;2023-03-03T11:25:52;100305.38;;;4.75;69.45
16664;BME280;8445;51.270;9.434;2023-03-03T11:31:39;100302.94;;;4.95;68.97
16664;BME280;8445;51.270;9.434;2023-03-03T11:34:23;100302.34;;;5.10;69.39
16664;BME280;8445;51.270;9.434;2023-03-03T11:37:01;100296.63;;;5.00;68.79
16664;BME280;8445;51.270;9.434;2023-03-03T11:39:28;100306.56;;;5.14;70.25
16664;BME280;8445;51.270;9.434;2023-03-03T11:42:18;100294.28;;;5.15;67.04
16664;BME280;8445;51.270;9.434;2023-03-03T11:45:02;100293.81;;;5.05;68.15
16664;BME280;8445;51.270;9.434;2023-03-03T11:50:21;100286.50;;;5.13;69.09
16664;BME280;8445;51.270;9.434;2023-03-03T11:55:53;100291.28;;;5.26;67.93
16664;BME280;8445;51.270;9.434;2023-03-03T11:58:33;100272.97;;;5.24;68.35
16664;BME280;8445;51.270;9.434;2023-03-03T12:01:07;100282.41;;;5.06;67.91
16664;BME280;8445;51.270;9.434;2023-03-03T12:03:48;100276.28;;;5.05;67.26
16664;BME280;8445;51.270;9.434;2023-03-03T12:12:13;100265.44;;;5.37;69.24
16664;BME280;8445;51.270;9.434;2023-03-03T12:18:05;100272.38;;;5.60;67.83
16664;BME280;8445;51.270;9.434;2023-03-03T12:21:09;100267.53;;;5.72;66.11
16664;BME280;8445;51.270;9.434;2023-03-03T12:23:57;100271.00;;;5.52;67.72
16664;BME280;8445;51.270;9.434;2023-03-03T12:26:53;100262.06;;;5.56;67.63
16664;BME280;8445;51.270;9.434;2023-03-03T12:35:53;100257.09;;;5.05;66.04
16664;BME280;8445;51.270;9.434;2023-03-03T12:42:19;100249.03;;;5.32;68.22
16664;BME280;8445;51.270;9.434;2023-03-03T12:47:45;100248.31;;;5.71;66.54
16664;BME280;8445;51.270;9.434;2023-03-03T12:53:04;100243.63;;;5.79;68.50
16664;BME280;8445;51.270;9.434;2023-03-03T12:55:52;100238.91;;;6.08;68.07
16664;BME280;8445;51.270;9.434;2023-03-03T13:01:07;100240.31;;;5.74;64.81
16664;BME280;8445;51.270;9.434;2023-03-03T13:03:41;100246.09;;;5.62;66.39
16664;BME280;8445;51.270;9.434;2023-03-03T13:06:38;100234.59;;;5.64;67.46
16664;BME280;8445;51.270;9.434;2023-03-03T13:20:04;100219.97;;;5.59;63.65
16664;BME280;8445;51.270;9.434;2023-03-03T13:22:36;100217.63;;;5.73;66.49
16664;BME280;8445;51.270;9.434;2023-03-03T13:28:06;100221.78;;;5.57;64.19
16664;BME280;8445;51.270;9.434;2023-03-03T13:30:37;100222.56;;;5.16;64.25
16664;BME280;8445;51.270;9.434;2023-03-03T13:33:15;100227.69;;;4.97;65.04
16664;BME280;8445;51.270;9.434;2023-03-03T13:35:49;100224.81;;;5.03;65.15
16664;BME280;8445;51.270;9.434;2023-03-03T13:38:29;100223.31;;;5.19;64.80
16664;BME280;8445;51.270;9.434;2023-03-03T13:43:48;100217.38;;;4.70;64.07
16664;BME280;8445;51.270;9.434;2023-03-03T13:46:44;100219.19;;;4.44;64.17
16664;BME280;8445;51.270;9.434;2023-03-03T14:03:28;100221.03;;;3.40;64.63
16664;BME280;8445;51.270;9.434;2023-03-03T14:06:03;100211.47;;;3.39;64.73
16664;BME280;8445;51.270;9.434;2023-03-03T14:11:41;100209.06;;;3.33;64.94
16664;BME280;8445;51.270;9.434;2023-03-03T14:17:24;100204.41;;;3.15;64.85
16664;BME280;8445;51.270;9.434;2023-03-03T14:20:18;100207.00;;;3.16;65.47
16664;BME280;8445;51.270;9.434;2023-03-03T14:22:53;100211.06;;;3.25;64.88
16664;BME280;8445;51.270;9.434;2023-03-03T14:25:19;100210.09;;;3.28;65.02
16664;BME280;8445;51.270;9.434;2023-03-03T14:35:37;100202.09;;;2.77;65.16
16664;BME280;8445;51.270;9.434;2023-03-03T14:40:39;100206.28;;;2.52;65.71
16664;BME280;8445;51.270;9.434;2023-03-03T14:45:44;100204.41;;;2.58;65.35
16664;BME280;8445;51.270;9.434;2023-03-03T14:48:18;100189.97;;;2.44;66.10
16664;BME280;8445;51.270;9.434;2023-03-03T14:55:49;100188.34;;;2.40;65.84
16664;BME280;8445;51.270;9.434;2023-03-03T14:58:37;100181.41;;;2.41;67.22
16664;BME280;8445;51.270;9.434;2023-03-03T15:01:21;100179.72;;;2.38;66.64
16664;BME280;8445;51.270;9.434;2023-03-03T15:06:44;100166.03;;;2.60;65.16
16664;BME280;8445;51.270;9.434;2023-03-03T15:12:00;100160.16;;;2.53;65.25
16664;BME280;8445;51.270;9.434;2023-03-03T15:14:47;100169.63;;;2.56;65.83
16664;BME280;8445;51.270;9.434;2023-03-03T15:20:17;100165.56;;;2.47;65.65
16664;BME280;8445;51.270;9.434;2023-03-03T15:25:21;100161.25;;;2.44;65.23
16664;BME280;8445;51.270;9.434;2023-03-03T15:28:00;100156.03;;;2.44;65.28
16664;BME280;8445;51.270;9.434;2023-03-03T15:33:58;100154.06;;;2.22;66.19
16664;BME280;8445;51.270;9.434;2023-03-03T15:36:47;100160.47;;;2.11;65.93
16664;BME280;8445;51.270;9.434;2023-03-03T15:39:24;100152.97;;;2.00;66.05
16664;BME280;8445;51.270;9.434;2023-03-03T15:42:10;100153.88;;;1.99;66.04
16664;BME280;8445;51.270;9.434;2023-03-03T15:45:06;100155.56;;;2.00;65.85
16664;BME280;8445;51.270;9.434;2023-03-03T15:48:00;100154.00;;;1.94;66.71
16664;BME280;8445;51.270;9.434;2023-03-03T15:50:43;100164.28;;;2.00;66.21
16664;BME280;8445;51.270;9.434;2023-03-03T15:53:34;100157.19;;;2.04;65.07
16664;BME280;8445;51.270;9.434;2023-03-03T16:03:32;100157.38;;;1.98;65.72
16664;BME280;8445;51.270;9.434;2023-03-03T16:09:02;100159.34;;;1.89;66.31
16664;BME280;8445;51.270;9.434;2023-03-03T16:11:45;100156.69;;;1.91;66.04
16664;BME280;8445;51.270;9.434;2023-03-03T16:17:25;100156.88;;;1.85;65.54
16664;BME280;8445;51.270;9.434;2023-03-03T16:20:02;100163.97;;;1.80;65.05
16664;BME280;8445;51.270;9.434;2023-03-03T16:25:16;100165.06;;;1.71;64.79
16664;BME280;8445;51.270;9.434;2023-03-03T16:28:05;100168.72;;;1.63;65.30
16664;BME280;8445;51.270;9.434;2023-03-03T16:30:42;100164.56;;;1.56;65.35
16664;BME280;8445;51.270;9.434;2023-03-03T16:33:37;100166.59;;;1.45;64.83
16664;BME280;8445;51.270;9.434;2023-03-03T16:39:00;100162.94;;;1.17;66.01
16664;BME280;8445;51.270;9.434;2023-03-03T16:41:58;100177.72;;;1.17;65.98
16664;BME280;8445;51.270;9.434;2023-03-03T16:44:55;100165.88;;;1.03;64.77
16664;BME280;8445;51.270;9.434;2023-03-03T16:47:41;100181.03;;;0.86;65.24
16664;BME280;8445;51.270;9.434;2023-03-03T17:04:47;100183.38;;;0.18;64.91
16664;BME280;8445;51.270;9.434;2023-03-03T17:07:35;100178.34;;;0.07;64.59
16664;BME280;8445;51.270;9.434;2023-03-03T17:10:14;100182.78;;;0.02;64.79